Time;durP1;ratioP1;P1;durP2;ratioP2;P2;SDS_P1;SDS_P2;PMS_P1;PMS_P2;Temp;Humidity;BMP_temperature;BMP_pressure;BME280_temperature;BME280_humidity;BME280_pressure;Samples;Min_cycle;Max_cycle;Signal;HPM_P1;HPM_P2
2023/08/07 00:05:00;;;;;;;4.50;1.70;;;;;;;14.38;80.04;99050.19;7164328;40;20269;31
2023/08/07 00:10:32;;;;;;;5.10;1.90;;;;;;;14.42;79.92;99058.75;7011582;40;21379;31
2023/08/07 00:16:03;;;;;;;3.20;1.95;;;;;;;14.37;79.95;99053.91;7195951;40;20258;31
2023/08/07 00:21:21;;;;;;;4.93;1.87;;;;;;;14.35;79.41;99041.53;7199305;40;20358;31
2023/08/07 00:26:52;;;;;;;3.10;1.83;;;;;;;14.39;79.83;99059.97;7159110;40;20251;31
2023/08/07 00:32:28;;;;;;;3.75;1.70;;;;;;;14.33;79.42;99049.88;7121073;40;20305;31
2023/08/07 00:42:53;;;;;;;4.90;1.70;;;;;;;14.35;79.59;99055.09;7220213;40;20286;31
2023/08/07 00:53:29;;;;;;;3.20;1.80;;;;;;;14.28;79.43;99059.62;7259392;40;21142;31
2023/08/07 01:04:05;;;;;;;4.50;2.00;;;;;;;14.27;78.72;99056.06;7300149;39;20273;31
2023/08/07 01:14:44;;;;;;;10.35;1.80;;;;;;;14.27;79.02;99056.06;7253741;40;21197;31
2023/08/07 01:25:22;;;;;;;5.10;1.87;;;;;;;14.21;78.97;99050.59;7264336;39;20307;31
2023/08/07 01:30:54;;;;;;;4.17;1.77;;;;;;;14.12;78.87;99052.59;7311605;39;20256;31
2023/08/07 01:36:29;;;;;;;4.37;2.10;;;;;;;14.16;79.03;99058.47;7277865;40;20250;31
2023/08/07 01:47:06;;;;;;;5.53;2.00;;;;;;;14.08;78.99;99073.00;7265698;40;21305;31
2023/08/07 01:52:38;;;;;;;3.43;1.93;;;;;;;14.11;78.86;99083.44;7228666;40;20245;31
2023/08/07 01:57:55;;;;;;;4.50;1.75;;;;;;;14.09;79.00;99077.34;7202577;40;20269;31
2023/08/07 02:03:28;;;;;;;6.03;1.97;;;;;;;14.06;78.54;99088.59;7220745;40;20253;31
2023/08/07 02:08:45;;;;;;;3.95;1.95;;;;;;;14.09;78.80;99088.19;7216938;40;20342;31
2023/08/07 02:14:02;;;;;;;2.57;1.80;;;;;;;14.05;79.28;99097.75;7245492;40;20428;31
2023/08/07 02:19:33;;;;;;;9.53;2.23;;;;;;;13.99;78.70;99096.66;7242304;40;20249;31
2023/08/07 02:25:05;;;;;;;5.57;2.10;;;;;;;13.99;78.82;99095.81;7256727;40;20311;31
2023/08/07 02:30:37;;;;;;;4.60;2.10;;;;;;;14.01;79.22;99077.47;7226774;40;20262;31
2023/08/07 02:36:10;;;;;;;5.40;2.13;;;;;;;13.98;78.85;99088.72;7218504;40;20246;31
2023/08/07 02:41:27;;;;;;;4.70;1.90;;;;;;;13.93;79.24;99085.72;7183755;40;20246;31
2023/08/07 02:46:59;;;;;;;7.90;2.10;;;;;;;13.92;79.31;99086.75;7157852;40;20262;31
2023/08/07 02:52:30;;;;;;;8.07;2.30;;;;;;;13.91;79.61;99095.91;7190501;40;20364;31
2023/08/07 03:03:09;;;;;;;6.35;2.00;;;;;;;13.93;79.62;99086.56;7279180;39;20284;31
2023/08/07 03:13:46;;;;;;;7.50;2.17;;;;;;;13.85;79.31;99093.97;7276319;39;20277;31
2023/08/07 03:19:21;;;;;;;4.10;2.00;;;;;;;13.87;79.30;99086.47;7253668;40;20281;31
2023/08/07 03:24:50;;;;;;;5.23;1.93;;;;;;;13.88;79.47;99093.59;7238783;40;20520;31
2023/08/07 03:30:21;;;;;;;6.37;2.20;;;;;;;13.83;79.49;99086.03;7215650;40;20232;31
2023/08/07 03:35:38;;;;;;;4.47;2.23;;;;;;;13.87;80.12;99089.19;7171763;40;20291;31
2023/08/07 03:41:10;;;;;;;4.57;2.77;;;;;;;13.84;79.22;99078.75;7132527;40;20273;31
2023/08/07 03:46:43;;;;;;;6.13;2.10;;;;;;;13.76;79.86;99087.81;7186117;40;20352;31
2023/08/07 03:52:18;;;;;;;6.80;2.20;;;;;;;13.75;79.76;99082.59;7116375;40;20403;31
2023/08/07 03:57:35;;;;;;;5.23;2.30;;;;;;;13.80;80.02;99081.00;7145689;40;20243;31
2023/08/07 04:03:08;;;;;;;3.45;1.90;;;;;;;13.81;79.79;99090.81;7155874;40;20365;31
2023/08/07 04:13:44;;;;;;;6.83;2.10;;;;;;;13.76;80.24;99078.84;7229520;40;21247;31
2023/08/07 04:19:20;;;;;;;4.73;1.90;;;;;;;13.78;80.33;99104.72;7319316;39;20244;31
2023/08/07 04:24:37;;;;;;;4.17;2.20;;;;;;;13.75;80.11;99093.44;7236051;40;20247;31
2023/08/07 04:29:55;;;;;;;6.07;2.27;;;;;;;13.78;80.00;99093.03;7253360;40;20241;31
2023/08/07 04:35:27;;;;;;;3.47;2.03;;;;;;;13.83;79.96;99096.03;7234399;40;20230;31
2023/08/07 04:41:03;;;;;;;7.40;2.27;;;;;;;13.84;79.70;99092.28;7280682;40;20341;31
2023/08/07 04:46:19;;;;;;;4.53;2.20;;;;;;;13.85;79.93;99091.28;7216795;40;20257;31
2023/08/07 04:51:52;;;;;;;6.03;2.20;;;;;;;13.85;79.83;99094.81;7177855;40;20258;31
2023/08/07 04:57:24;;;;;;;3.90;2.20;;;;;;;13.81;80.04;99104.34;7193320;40;20257;31
2023/08/07 05:02:42;;;;;;;4.37;2.00;;;;;;;13.89;79.50;99122.38;7185917;40;20255;31
2023/08/07 05:08:13;;;;;;;6.93;2.40;;;;;;;13.84;80.07;99111.25;7201407;40;22213;31
2023/08/07 05:18:34;;;;;;;4.95;2.40;;;;;;;13.88;79.74;99109.84;7280744;39;20268;31
2023/08/07 05:29:11;;;;;;;3.37;2.30;;;;;;;13.85;79.86;99111.06;7320955;39;20269;31
2023/08/07 05:34:43;;;;;;;4.80;2.50;;;;;;;13.84;79.49;99135.62;7194617;40;20258;31
2023/08/07 05:40:15;;;;;;;3.13;2.23;;;;;;;13.78;79.25;99139.09;7220840;40;20295;31
2023/08/07 05:45:49;;;;;;;5.07;2.30;;;;;;;13.81;79.35;99149.56;7212639;40;20398;31
2023/08/07 05:56:10;;;;;;;3.80;2.07;;;;;;;13.78;79.53;99152.63;7235936;40;20281;31
2023/08/07 06:01:43;;;;;;;4.03;2.20;;;;;;;13.73;78.91;99160.50;7282600;40;20249;31
2023/08/07 06:07:01;;;;;;;4.67;2.20;;;;;;;13.70;78.84;99167.12;7265796;40;20237;31
2023/08/07 06:12:21;;;;;;;4.05;2.00;;;;;;;13.73;78.93;99177.63;7255270;40;20260;31
2023/08/07 06:17:53;;;;;;;2.53;1.93;;;;;;;13.74;78.85;99173.00;7254203;40;20411;31
2023/08/07 06:23:28;;;;;;;3.90;2.10;;;;;;;13.78;79.05;99185.16;7191503;40;20401;31
2023/08/07 06:29:00;;;;;;;4.55;1.80;;;;;;;13.79;78.79;99184.13;7196801;40;20262;31
2023/08/07 06:34:31;;;;;;;3.17;1.90;;;;;;;13.88;78.58;99193.84;7242377;40;20699;31
2023/08/07 06:40:03;;;;;;;7.70;2.85;;;;;;;13.91;78.26;99196.16;7203396;40;20285;31
2023/08/07 06:45:21;;;;;;;4.17;1.97;;;;;;;13.95;77.74;99184.75;7173048;40;20382;31
2023/08/07 06:50:56;;;;;;;5.23;1.97;;;;;;;13.97;77.59;99187.28;7229822;40;20241;31
2023/08/07 06:56:31;;;;;;;4.60;1.90;;;;;;;13.97;77.26;99190.00;7133205;40;20240;31
2023/08/07 07:01:49;;;;;;;4.73;1.87;;;;;;;14.09;77.53;99201.19;7138684;40;20334;31
2023/08/07 07:07:24;;;;;;;3.10;1.80;;;;;;;14.19;77.20;99210.72;7175913;40;20247;31
2023/08/07 07:12:45;;;;;;;2.67;1.80;;;;;;;14.28;76.94;99220.44;7162418;40;21063;31
2023/08/07 07:18:17;;;;;;;3.50;1.77;;;;;;;14.28;76.03;99217.72;7017108;40;21338;31
2023/08/07 07:23:49;;;;;;;4.37;1.90;;;;;;;14.34;76.14;99225.13;7248291;40;20277;31
2023/08/07 07:29:24;;;;;;;2.37;1.80;;;;;;;14.42;75.87;99235.03;7192417;40;20281;31
2023/08/07 07:34:42;;;;;;;7.20;2.13;;;;;;;14.53;75.48;99239.09;7214480;40;20258;31
2023/08/07 07:40:16;;;;;;;2.83;1.80;;;;;;;14.53;75.04;99244.53;7257811;40;20248;31
2023/08/07 07:45:48;;;;;;;4.50;2.10;;;;;;;14.57;74.93;99254.00;7246520;40;20343;31
2023/08/07 07:51:08;;;;;;;3.70;2.10;;;;;;;14.63;75.02;99261.34;7251460;40;20277;31
2023/08/07 08:01:49;;;;;;;4.40;2.00;;;;;;;14.72;73.53;99266.47;7221508;40;20425;31
2023/08/07 08:07:24;;;;;;;5.55;1.90;;;;;;;14.71;72.66;99281.06;7193883;40;20245;31
2023/08/07 08:12:55;;;;;;;3.17;1.80;;;;;;;14.75;72.79;99282.38;7236005;40;20375;31
2023/08/07 08:23:35;;;;;;;4.20;1.90;;;;;;;14.84;71.45;99280.38;7160785;40;20381;31
2023/08/07 08:34:11;;;;;;;1.90;1.50;;;;;;;14.93;69.87;99279.22;7218764;40;20253;31
2023/08/07 08:39:44;;;;;;;3.17;2.00;;;;;;;14.98;70.41;99271.34;7274421;40;20430;31
2023/08/07 08:50:23;;;;;;;3.47;1.95;;;;;;;15.18;69.68;99266.94;7273494;40;20277;31
2023/08/07 08:55:56;;;;;;;3.63;1.90;;;;;;;15.32;70.42;99281.50;7308583;39;20251;31
2023/08/07 09:01:28;;;;;;;3.17;2.07;;;;;;;15.43;69.76;99288.28;7292963;39;20287;31
2023/08/07 09:12:08;;;;;;;3.03;1.73;;;;;;;15.55;69.52;99289.47;7260480;40;20288;31
2023/08/07 09:22:29;;;;;;;4.07;2.00;;;;;;;15.72;68.73;99297.13;7291790;39;20291;31
2023/08/07 09:28:04;;;;;;;5.17;2.00;;;;;;;15.75;67.85;99293.19;7296521;40;20245;31
2023/08/07 09:33:40;;;;;;;5.72;2.08;;;;;;;15.93;68.38;99282.66;7267457;40;20332;31
2023/08/07 09:44:23;;;;;;;4.40;1.82;;;;;;;16.12;68.05;99297.41;7205116;40;20274;31
2023/08/07 09:49:58;;;;;;;6.10;2.00;;;;;;;16.27;66.86;99306.31;7202404;40;20261;31
2023/08/07 09:55:34;;;;;;;2.80;1.95;;;;;;;16.35;66.97;99297.13;7209558;40;20292;31
2023/08/07 10:01:09;;;;;;;5.00;1.80;;;;;;;16.37;66.04;99305.91;7193984;40;20392;31
2023/08/07 10:06:39;;;;;;;3.03;1.77;;;;;;;16.37;65.00;99305.91;7217480;40;20251;31
2023/08/07 10:12:15;;;;;;;2.95;1.75;;;;;;;16.39;66.00;99310.13;7154585;40;20281;31
2023/08/07 10:17:48;;;;;;;3.47;1.70;;;;;;;16.36;63.53;99304.25;7147959;40;20396;31
2023/08/07 10:23:23;;;;;;;3.00;1.90;;;;;;;16.39;64.93;99303.84;7163980;40;20266;31
2023/08/07 10:28:55;;;;;;;3.57;2.00;;;;;;;16.50;63.38;99301.38;7164115;40;20262;31
2023/08/07 10:34:31;;;;;;;3.50;1.80;;;;;;;16.61;63.86;99305.47;7122866;40;20247;31
2023/08/07 10:40:20;;;;;;;4.13;1.80;;;;;;;16.76;61.97;99305.31;7152471;40;20421;31
2023/08/07 10:51:08;;;;;;;3.48;1.72;;;;;;;17.02;61.05;99306.25;7161280;40;20354;31
2023/08/07 10:56:45;;;;;;;2.00;1.70;;;;;;;17.12;61.93;99287.59;7233242;40;20253;31
2023/08/07 11:02:20;;;;;;;2.73;1.50;;;;;;;17.24;59.68;99297.91;7228985;40;20269;31
2023/08/07 11:13:00;;;;;;;5.70;1.70;;;;;;;17.34;59.24;99296.44;7252269;40;20652;31
2023/08/07 11:23:39;;;;;;;2.10;1.70;;;;;;;17.76;58.67;99297.16;7238672;40;20282;31
2023/08/07 11:29:12;;;;;;;2.67;1.77;;;;;;;17.79;57.73;99286.66;7255427;40;20605;31
2023/08/07 11:39:57;;;;;;;2.60;1.80;;;;;;;18.29;55.66;99287.00;7249463;40;20462;31
2023/08/07 11:45:34;;;;;;;2.70;1.60;;;;;;;18.36;55.85;99296.00;7212689;40;20285;31
2023/08/07 11:51:10;;;;;;;2.90;1.77;;;;;;;18.39;55.57;99301.84;7205966;40;20332;31
2023/08/07 11:56:43;;;;;;;2.57;2.10;;;;;;;18.48;55.90;99292.37;7223769;40;20267;31
2023/08/07 12:02:16;;;;;;;2.37;1.60;;;;;;;18.56;56.45;99291.31;7214143;40;20361;31
2023/08/07 12:07:51;;;;;;;3.10;1.90;;;;;;;18.82;56.90;99290.41;7196605;40;20262;31
2023/08/07 12:13:27;;;;;;;3.63;1.70;;;;;;;19.35;55.44;99271.78;7194519;40;21914;31
2023/08/07 12:19:01;;;;;;;3.17;1.73;;;;;;;19.25;54.42;99275.03;7217649;40;20331;31
2023/08/07 12:24:20;;;;;;;3.37;1.70;;;;;;;19.27;55.05;99278.34;7172808;40;20281;31
2023/08/07 12:29:39;;;;;;;3.93;2.30;;;;;;;19.95;53.91;99285.84;7187131;40;20337;31
2023/08/07 12:35:14;;;;;;;2.70;1.80;;;;;;;19.74;52.31;99292.56;7174380;40;20339;31
2023/08/07 12:40:46;;;;;;;2.50;1.70;;;;;;;20.23;53.24;99291.66;7196725;40;20255;31
2023/08/07 12:46:07;;;;;;;2.70;1.80;;;;;;;20.62;51.41;99285.75;7260489;40;20268;31
2023/08/07 12:51:39;;;;;;;2.60;1.80;;;;;;;20.93;50.72;99287.47;7236291;40;20249;31
2023/08/07 12:57:11;;;;;;;3.63;1.77;;;;;;;20.99;49.23;99283.81;7193163;40;20281;31
2023/08/07 13:02:32;;;;;;;2.60;2.07;;;;;;;21.23;50.60;99297.66;7201086;40;20253;31
2023/08/07 13:08:07;;;;;;;2.63;2.00;;;;;;;20.77;50.81;99309.19;7251950;40;20326;31
2023/08/07 13:13:28;;;;;;;3.83;2.07;;;;;;;20.54;51.07;99307.97;7202638;40;20269;31
2023/08/07 13:18:45;;;;;;;2.70;1.90;;;;;;;20.92;50.85;99304.16;7243597;40;20359;31
2023/08/07 13:24:15;;;;;;;2.43;1.80;;;;;;;20.90;50.05;99298.91;7252015;40;20268;31
2023/08/07 13:29:33;;;;;;;3.05;2.00;;;;;;;21.15;50.48;99304.28;7208930;40;20255;31
2023/08/07 13:34:50;;;;;;;4.35;2.20;;;;;;;21.30;48.98;99303.88;7183384;40;20267;31
2023/08/07 13:40:23;;;;;;;5.25;2.20;;;;;;;21.23;49.16;99314.13;7174942;40;20244;31
2023/08/07 13:45:55;;;;;;;3.15;2.10;;;;;;;21.35;49.63;99318.56;7225766;40;20258;31
2023/08/07 13:51:27;;;;;;;4.15;2.33;;;;;;;20.76;50.35;99322.06;7229588;40;20377;31
2023/08/07 13:57:00;;;;;;;4.13;2.20;;;;;;;20.34;52.84;99331.19;7224304;40;20250;31
2023/08/07 14:02:35;;;;;;;2.60;1.87;;;;;;;20.20;52.25;99328.53;7165154;40;20265;31
2023/08/07 14:07:57;;;;;;;2.87;2.00;;;;;;;20.61;51.32;99327.94;7163092;40;20340;31
2023/08/07 14:13:32;;;;;;;3.10;2.03;;;;;;;20.76;52.53;99330.28;7028078;40;20245;31
2023/08/07 14:19:07;;;;;;;3.83;2.10;;;;;;;20.58;51.76;99333.00;7196709;40;20307;31
2023/08/07 14:24:42;;;;;;;2.83;1.90;;;;;;;20.33;54.92;99341.28;7199162;40;20265;31
2023/08/07 14:30:20;;;;;;;3.37;1.90;;;;;;;20.44;52.10;99343.31;7189194;40;20265;31
2023/08/07 14:35:52;;;;;;;5.77;2.00;;;;;;;20.58;52.07;99343.97;7183147;40;20302;31
2023/08/07 14:46:33;;;;;;;3.00;2.00;;;;;;;20.81;52.29;99344.13;7211214;40;20269;31
2023/08/07 14:52:05;;;;;;;3.47;2.10;;;;;;;20.68;52.81;99336.06;7168778;40;20352;31
2023/08/07 14:57:37;;;;;;;3.07;1.90;;;;;;;20.95;52.41;99337.44;7193167;40;20453;31
2023/08/07 15:03:10;;;;;;;2.50;2.10;;;;;;;21.09;52.94;99329.87;7180032;40;20258;31
2023/08/07 15:08:45;;;;;;;3.30;1.90;;;;;;;21.03;52.05;99336.25;7180549;40;20347;31
2023/08/07 15:14:17;;;;;;;2.33;2.10;;;;;;;21.10;52.32;99334.28;7185857;40;20276;31
2023/08/07 15:19:50;;;;;;;2.33;1.83;;;;;;;21.29;52.50;99332.34;7173030;40;20255;31
2023/08/07 15:25:10;;;;;;;2.83;1.85;;;;;;;21.37;51.04;99332.06;7191112;40;20296;31
2023/08/07 15:35:51;;;;;;;1.93;1.60;;;;;;;21.11;51.24;99331.31;7226294;40;20293;31
2023/08/07 15:41:26;;;;;;;2.58;1.83;;;;;;;21.03;52.59;99333.53;7225292;40;20362;31
2023/08/07 15:46:43;;;;;;;3.78;1.87;;;;;;;20.88;52.33;99339.44;7234902;40;20258;31
2023/08/07 15:52:16;;;;;;;2.75;2.10;;;;;;;20.53;53.86;99333.72;7235422;40;20241;31
2023/08/07 15:57:36;;;;;;;3.05;2.00;;;;;;;20.64;53.17;99340.34;7264808;40;20356;31
2023/08/07 16:03:08;;;;;;;2.70;1.90;;;;;;;20.85;53.98;99328.06;7282930;39;22160;31
2023/08/07 16:08:44;;;;;;;2.50;1.90;;;;;;;20.95;53.75;99311.91;7174866;40;20421;31
2023/08/07 16:14:19;;;;;;;2.80;1.90;;;;;;;21.03;53.06;99315.19;7202901;40;20419;31
2023/08/07 16:19:36;;;;;;;4.30;1.80;;;;;;;20.76;52.62;99313.00;7202338;40;20449;31
2023/08/07 16:25:07;;;;;;;2.07;1.87;;;;;;;20.60;53.75;99325.41;7251650;39;20350;31
2023/08/07 16:30:24;;;;;;;2.47;1.90;;;;;;;20.77;52.98;99334.69;7255856;40;20242;31
2023/08/07 16:41:02;;;;;;;3.10;1.70;;;;;;;21.04;49.70;99336.06;7238499;40;20392;31
2023/08/07 16:46:19;;;;;;;4.00;1.67;;;;;;;21.06;50.12;99335.81;7258289;40;20278;31
2023/08/07 16:51:57;;;;;;;2.08;1.80;;;;;;;20.92;50.24;99328.84;7340077;39;20336;31
2023/08/07 16:57:27;;;;;;;3.15;1.70;;;;;;;20.77;51.11;99333.84;7254317;40;20261;31
2023/08/07 17:03:03;;;;;;;1.70;1.40;;;;;;;20.48;52.48;99336.31;7206890;40;20250;31
2023/08/07 17:08:34;;;;;;;3.85;1.90;;;;;;;20.38;51.81;99332.41;7182975;40;20255;31
2023/08/07 17:14:11;;;;;;;2.43;1.90;;;;;;;20.24;52.50;99331.66;7202628;40;20245;31
2023/08/07 17:19:31;;;;;;;2.12;1.70;;;;;;;20.08;52.85;99327.63;7166339;40;20336;31
2023/08/07 17:25:06;;;;;;;3.33;1.70;;;;;;;19.92;52.75;99328.16;7201853;40;20246;31
2023/08/07 17:30:42;;;;;;;2.83;1.80;;;;;;;19.87;54.67;99321.69;7194305;40;20332;31
2023/08/07 17:36:17;;;;;;;1.80;1.60;;;;;;;19.84;55.00;99335.81;7186525;40;20266;31
2023/08/07 17:41:52;;;;;;;2.27;1.60;;;;;;;19.86;54.53;99337.28;7190705;40;20336;31
2023/08/07 17:47:28;;;;;;;1.93;1.73;;;;;;;19.67;54.95;99332.78;7206864;40;20280;31
2023/08/07 17:52:48;;;;;;;2.15;1.70;;;;;;;19.60;55.03;99346.53;7195277;40;20361;31
2023/08/07 17:58:08;;;;;;;4.53;1.70;;;;;;;19.47;55.50;99330.22;7202968;40;20246;31
2023/08/07 18:03:45;;;;;;;2.97;1.63;;;;;;;19.40;56.25;99344.94;7225345;40;20372;31
2023/08/07 18:09:04;;;;;;;4.10;1.50;;;;;;;19.30;55.76;99345.44;7188565;40;20345;31
2023/08/07 18:14:25;;;;;;;2.00;1.80;;;;;;;19.25;55.77;99359.75;7214446;40;20245;31
2023/08/07 18:20:00;;;;;;;3.17;1.53;;;;;;;19.16;55.81;99365.69;7218727;40;20269;31
2023/08/07 18:30:36;;;;;;;2.60;1.90;;;;;;;19.15;56.65;99355.81;7305511;39;20382;31
2023/08/07 18:36:09;;;;;;;3.05;1.75;;;;;;;19.08;58.42;99355.84;7272332;39;20327;31
2023/08/07 18:41:30;;;;;;;2.93;1.53;;;;;;;18.92;57.55;99348.97;7170322;40;20386;31
2023/08/07 18:46:50;;;;;;;2.17;1.73;;;;;;;18.91;57.99;99354.66;7176205;40;20341;31
2023/08/07 18:52:25;;;;;;;4.80;1.57;;;;;;;18.81;58.62;99357.84;7214995;40;20256;31
2023/08/07 18:58:00;;;;;;;2.27;1.70;;;;;;;18.76;58.74;99352.19;7214688;40;20276;31
2023/08/07 19:03:21;;;;;;;2.03;1.60;;;;;;;18.73;58.63;99354.53;7210689;40;21620;31
2023/08/07 19:08:56;;;;;;;1.60;1.50;;;;;;;18.69;59.08;99356.81;7212983;40;20261;31
2023/08/07 19:14:17;;;;;;;2.00;1.50;;;;;;;18.65;59.57;99362.94;7187867;40;20380;31
2023/08/07 19:19:37;;;;;;;2.33;1.50;;;;;;;18.59;59.18;99364.62;7250741;40;20261;31
2023/08/07 19:25:12;;;;;;;1.50;1.30;;;;;;;18.54;60.61;99358.97;7250825;40;20548;31
2023/08/07 19:35:51;;;;;;;2.60;1.60;;;;;;;18.37;61.34;99376.81;7269390;40;20285;31
2023/08/07 19:41:27;;;;;;;2.37;2.00;;;;;;;18.24;62.60;99382.31;7242831;40;20250;31
2023/08/07 19:47:02;;;;;;;2.70;1.70;;;;;;;18.18;62.32;99378.53;7241106;40;20316;31
2023/08/07 19:57:42;;;;;;;2.68;1.72;;;;;;;18.08;62.18;99363.66;7241585;40;20291;31
2023/08/07 20:03:15;;;;;;;4.00;1.60;;;;;;;17.93;62.79;99361.13;7251597;40;22764;31
2023/08/07 20:08:35;;;;;;;3.17;1.63;;;;;;;17.80;62.76;99366.56;7236958;40;20359;31
2023/08/07 20:14:10;;;;;;;3.53;1.73;;;;;;;17.66;63.90;99367.59;7240463;40;20335;31
2023/08/07 20:19:46;;;;;;;3.50;1.83;;;;;;;17.60;63.79;99363.81;7234686;40;20261;31
2023/08/07 20:25:06;;;;;;;3.40;1.53;;;;;;;17.57;63.53;99369.66;7202347;40;20356;31
2023/08/07 20:30:43;;;;;;;1.60;1.50;;;;;;;17.55;63.98;99377.22;7204690;40;20258;31
2023/08/07 20:41:07;;;;;;;1.83;1.60;;;;;;;17.52;63.34;99374.88;7296245;39;20284;31
2023/08/07 20:51:46;;;;;;;2.07;1.70;;;;;;;17.45;63.68;99372.16;7279028;39;20339;31
2023/08/07 20:57:16;;;;;;;2.00;1.60;;;;;;;17.45;63.77;99377.59;7235308;40;20355;31
2023/08/07 21:02:48;;;;;;;1.50;1.20;;;;;;;17.40;63.74;99365.62;7013770;40;21251;31
2023/08/07 21:08:20;;;;;;;3.17;1.47;;;;;;;17.34;63.92;99369.16;7214480;40;20513;31
2023/08/07 21:13:52;;;;;;;1.43;1.30;;;;;;;17.29;63.31;99364.34;7201222;40;20316;31
2023/08/07 21:19:24;;;;;;;1.80;1.33;;;;;;;17.30;63.97;99357.00;7202712;40;20322;31
2023/08/07 21:24:55;;;;;;;1.43;1.33;;;;;;;17.33;63.43;99351.16;7225579;40;20265;31
2023/08/07 21:30:25;;;;;;;1.93;1.37;;;;;;;17.36;63.79;99350.75;7204359;40;20263;31
2023/08/07 21:35:45;;;;;;;1.97;1.50;;;;;;;17.35;63.50;99329.97;7245391;40;20276;31
2023/08/07 21:41:18;;;;;;;2.23;1.50;;;;;;;17.38;63.45;99326.84;7269862;40;20261;31
2023/08/07 21:46:53;;;;;;;2.37;1.33;;;;;;;17.39;63.29;99328.53;7238415;40;20336;31
2023/08/07 21:52:10;;;;;;;1.70;1.23;;;;;;;17.39;63.59;99331.25;7220884;40;20254;31
2023/08/07 21:57:43;;;;;;;1.70;1.40;;;;;;;17.35;63.81;99332.72;7273894;40;20268;31
2023/08/07 22:03:00;;;;;;;2.20;1.50;;;;;;;17.33;63.31;99327.47;7202098;40;20371;31
2023/08/07 22:08:17;;;;;;;1.25;1.15;;;;;;;17.25;63.55;99329.53;7269486;39;20280;31
2023/08/07 22:13:50;;;;;;;1.75;1.30;;;;;;;17.20;63.52;99329.34;7275994;40;20376;31
2023/08/07 22:19:22;;;;;;;2.45;1.40;;;;;;;17.22;63.71;99321.78;7247158;40;20393;31
2023/08/07 22:24:39;;;;;;;1.67;1.40;;;;;;;17.15;64.12;99321.78;7183817;40;20355;31
2023/08/07 22:30:15;;;;;;;1.93;1.40;;;;;;;17.12;63.89;99312.12;7239212;40;20249;31
2023/08/07 22:35:32;;;;;;;2.17;1.37;;;;;;;17.11;63.84;99321.34;7198421;40;20256;31
2023/08/07 22:40:52;;;;;;;2.10;1.30;;;;;;;17.09;64.06;99315.28;7171986;40;20277;31
2023/08/07 22:46:23;;;;;;;5.57;1.30;;;;;;;17.06;64.13;99312.97;7241670;40;20257;31
2023/08/07 22:51:40;;;;;;;2.53;1.30;;;;;;;17.04;64.77;99309.59;7218431;40;20333;31
2023/08/07 22:56:57;;;;;;;1.77;1.33;;;;;;;17.01;63.92;99299.13;7242882;40;20323;31
2023/08/07 23:02:30;;;;;;;1.30;1.20;;;;;;;16.93;64.27;99293.03;7247414;40;20355;31
2023/08/07 23:07:47;;;;;;;2.73;1.30;;;;;;;16.93;64.59;99298.47;7161521;40;20263;31
2023/08/07 23:13:08;;;;;;;2.17;1.30;;;;;;;16.87;64.65;99285.66;7182223;40;20324;31
2023/08/07 23:18:40;;;;;;;2.43;1.30;;;;;;;16.79;65.75;99289.41;7194828;40;20263;31
2023/08/07 23:24:12;;;;;;;5.23;1.60;;;;;;;16.79;64.93;99285.84;7179000;40;20258;31
2023/08/07 23:29:47;;;;;;;2.00;1.40;;;;;;;16.74;65.38;99286.47;7188148;40;20262;31
2023/08/07 23:40:25;;;;;;;4.00;1.50;;;;;;;16.75;66.28;99279.13;7185890;40;20519;31
2023/08/07 23:50:49;;;;;;;1.63;1.37;;;;;;;16.77;65.62;99277.03;7249580;39;20282;31
